createdAt,value
2019-05-03T00:02:23.059Z,4.60
2019-05-03T00:05:02.813Z,4.50
2019-05-03T00:07:31.796Z,3.57
2019-05-03T00:10:02.741Z,4.10
2019-05-03T00:12:32.637Z,3.83
2019-05-03T00:15:03.140Z,3.33
2019-05-03T00:17:32.488Z,3.17
2019-05-03T00:20:02.311Z,3.07
2019-05-03T00:22:32.316Z,3.60
2019-05-03T00:25:06.042Z,3.67
2019-05-03T00:27:32.274Z,3.47
2019-05-03T00:30:02.839Z,3.80
2019-05-03T00:32:32.141Z,3.93
2019-05-03T00:35:08.182Z,3.97
2019-05-03T00:37:38.466Z,4.83
2019-05-03T00:40:09.367Z,4.83
2019-05-03T00:42:38.131Z,4.37
2019-05-03T00:45:09.829Z,4.07
2019-05-03T00:47:38.462Z,4.30
2019-05-03T00:50:07.514Z,4.70
2019-05-03T00:52:36.197Z,5.20
2019-05-03T00:55:16.316Z,4.70
2019-05-03T00:57:37.142Z,3.97
2019-05-03T01:00:07.772Z,5.17
2019-05-03T01:02:36.508Z,5.40
2019-05-03T01:05:06.893Z,4.87
2019-05-03T01:07:35.508Z,5.27
2019-05-03T01:10:06.139Z,5.30
2019-05-03T01:12:34.942Z,5.20
2019-05-03T01:15:06.450Z,4.80
2019-05-03T01:17:36.138Z,5.10
2019-05-03T01:20:08.474Z,6.17
2019-05-03T01:22:37.214Z,6.10
2019-05-03T01:25:07.046Z,5.90
2019-05-03T01:27:35.814Z,5.93
2019-05-03T01:30:08.525Z,5.43
2019-05-03T01:32:37.277Z,6.40
2019-05-03T01:35:07.512Z,6.00
2019-05-03T01:37:36.125Z,6.57
2019-05-03T01:40:07.153Z,5.87
2019-05-03T01:42:35.855Z,5.83
2019-05-03T01:45:06.424Z,6.37
2019-05-03T01:47:42.332Z,6.30
2019-05-03T01:50:15.733Z,6.43
2019-05-03T01:52:46.384Z,6.07
2019-05-03T01:55:15.968Z,7.17
2019-05-03T01:57:44.697Z,6.67
2019-05-03T02:00:15.732Z,8.03
2019-05-03T02:02:57.909Z,7.10
2019-05-03T02:05:44.183Z,7.37
2019-05-03T02:08:14.231Z,8.10
2019-05-03T02:10:43.879Z,7.60
2019-05-03T02:13:12.482Z,7.20
2019-05-03T02:15:42.221Z,7.80
2019-05-03T02:18:14.761Z,7.63
2019-05-03T02:20:41.883Z,7.23
2019-05-03T02:23:11.880Z,7.53
2019-05-03T02:25:41.872Z,7.77
2019-05-03T02:28:12.478Z,7.20
2019-05-03T02:30:43.968Z,7.13
2019-05-03T02:33:13.485Z,6.80
2019-05-03T02:35:43.016Z,7.67
2019-05-03T02:38:13.010Z,7.17
2019-05-03T02:40:43.081Z,7.33
2019-05-03T02:43:29.542Z,7.97
2019-05-03T02:46:16.712Z,8.27
2019-05-03T02:48:59.382Z,8.13
2019-05-03T02:51:28.034Z,8.27
2019-05-03T02:53:57.232Z,7.03
2019-05-03T02:56:26.413Z,7.53
2019-05-03T02:58:55.932Z,7.77
2019-05-03T03:01:26.486Z,7.87
2019-05-03T03:03:56.918Z,7.57
2019-05-03T03:06:27.258Z,8.13
2019-05-03T03:08:58.558Z,8.30
2019-05-03T03:11:30.197Z,8.17
2019-05-03T03:13:59.602Z,8.83
2019-05-03T03:16:30.260Z,8.20
2019-05-03T03:19:02.242Z,7.70
2019-05-03T03:21:36.093Z,8.47
2019-05-03T03:24:10.288Z,7.87
2019-05-03T03:26:43.239Z,7.40
2019-05-03T03:29:12.157Z,7.53
2019-05-03T03:31:57.331Z,7.50
2019-05-03T03:34:28.748Z,7.73
2019-05-03T03:37:04.378Z,7.60
2019-05-03T03:39:27.927Z,7.83
2019-05-03T03:41:57.176Z,9.07
2019-05-03T03:44:26.878Z,8.60
2019-05-03T03:46:57.242Z,9.00
2019-05-03T03:49:29.447Z,9.20
2019-05-03T03:52:00.475Z,8.73
2019-05-03T03:54:35.269Z,9.67
2019-05-03T03:57:07.880Z,8.73
2019-05-03T03:59:36.316Z,8.63
2019-05-03T04:02:05.994Z,9.67
2019-05-03T04:04:35.738Z,9.07
2019-05-03T04:07:06.561Z,9.63
2019-05-03T04:09:36.645Z,9.60
2019-05-03T04:12:06.369Z,9.00
2019-05-03T04:14:37.956Z,10.07
2019-05-03T04:17:26.115Z,9.90
2019-05-03T04:19:56.888Z,10.13
2019-05-03T04:22:25.671Z,10.47
2019-05-03T04:24:55.360Z,9.87
2019-05-03T04:27:27.216Z,10.07
2019-05-03T04:29:55.721Z,9.23
2019-05-03T04:32:28.422Z,9.27
2019-05-03T04:34:56.031Z,9.57
2019-05-03T04:37:26.592Z,9.37
2019-05-03T04:39:56.114Z,9.63
2019-05-03T04:42:25.446Z,10.03
2019-05-03T04:44:56.264Z,9.33
2019-05-03T04:47:26.293Z,8.60
2019-05-03T04:49:55.615Z,7.87
2019-05-03T04:52:25.978Z,7.40
2019-05-03T04:54:56.919Z,6.97
2019-05-03T04:57:36.567Z,6.10
2019-05-03T04:59:56.539Z,6.83
2019-05-03T05:02:26.251Z,6.53
2019-05-03T05:04:55.668Z,6.73
2019-05-03T05:07:26.013Z,6.27
2019-05-03T05:09:56.131Z,7.00
2019-05-03T05:12:25.507Z,6.57
2019-05-03T05:14:56.358Z,6.70
2019-05-03T05:17:28.985Z,6.50
2019-05-03T05:19:59.278Z,7.10
2019-05-03T05:22:29.477Z,6.80
2019-05-03T05:24:58.893Z,7.20
2019-05-03T05:27:29.463Z,6.83
2019-05-03T05:29:58.799Z,6.70
2019-05-03T05:32:27.727Z,6.87
2019-05-03T05:34:56.489Z,6.40
2019-05-03T05:37:25.229Z,6.20
2019-05-03T05:39:55.066Z,5.50
2019-05-03T05:42:25.110Z,5.93
2019-05-03T05:44:55.523Z,6.30
2019-05-03T05:47:28.428Z,5.00
2019-05-03T05:49:58.623Z,4.50
2019-05-03T05:52:27.201Z,5.00
2019-05-03T05:54:57.745Z,4.50
2019-05-03T05:57:27.973Z,3.97
2019-05-03T05:59:58.186Z,4.43
2019-05-03T06:02:26.825Z,4.83
2019-05-03T06:04:55.675Z,4.47
2019-05-03T06:07:37.725Z,4.07
2019-05-03T06:10:09.080Z,3.97
2019-05-03T06:12:45.439Z,4.33
2019-05-03T06:15:15.817Z,3.90
2019-05-03T06:17:46.016Z,3.93
2019-05-03T06:20:24.532Z,4.50
2019-05-03T06:23:00.853Z,4.60
2019-05-03T06:25:31.105Z,4.70
2019-05-03T06:28:01.017Z,4.33
2019-05-03T06:30:31.393Z,3.87
2019-05-03T06:33:00.031Z,3.63
2019-05-03T06:35:28.798Z,4.20
2019-05-03T06:37:57.436Z,4.43
2019-05-03T06:40:26.182Z,3.37
2019-05-03T06:43:09.071Z,3.57
2019-05-03T06:45:32.746Z,3.20
2019-05-03T06:48:01.313Z,3.17
2019-05-03T06:50:29.897Z,3.10
2019-05-03T06:52:59.896Z,2.87
2019-05-03T06:55:29.063Z,3.00
2019-05-03T06:57:57.655Z,2.50
2019-05-03T07:00:30.413Z,2.97
2019-05-03T07:03:19.121Z,3.00
2019-05-03T07:05:49.321Z,2.17
2019-05-03T07:08:19.628Z,2.97
2019-05-03T07:10:54.843Z,2.37
2019-05-03T07:13:23.075Z,2.53
2019-05-03T07:15:51.631Z,2.13
2019-05-03T07:18:20.483Z,2.33
2019-05-03T07:20:56.473Z,2.40
2019-05-03T07:23:24.497Z,2.17
2019-05-03T07:25:55.034Z,2.20
2019-05-03T07:28:24.797Z,2.00
2019-05-03T07:30:54.424Z,2.13
2019-05-03T07:33:25.466Z,1.87
2019-05-03T07:35:54.756Z,1.93
2019-05-03T07:38:24.825Z,1.60
2019-05-03T07:40:54.948Z,1.63
2019-05-03T07:43:24.504Z,1.83
2019-05-03T07:45:55.094Z,1.63
2019-05-03T07:48:25.474Z,1.80
2019-05-03T07:50:54.711Z,1.90
2019-05-03T07:53:25.191Z,2.53
2019-05-03T07:56:01.136Z,2.23
2019-05-03T07:58:31.075Z,2.03
2019-05-03T08:01:09.397Z,1.80
2019-05-03T08:03:34.875Z,2.33
2019-05-03T08:06:04.873Z,2.37
2019-05-03T08:08:35.435Z,1.80
2019-05-03T08:11:05.286Z,2.07
2019-05-03T08:13:35.542Z,1.73
2019-05-03T08:16:05.893Z,1.80
2019-05-03T08:18:35.502Z,2.23
2019-05-03T08:21:05.577Z,1.93
2019-05-03T08:23:35.304Z,2.10
2019-05-03T08:26:05.790Z,1.73
2019-05-03T08:28:34.771Z,1.70
2019-05-03T08:31:23.775Z,1.90
2019-05-03T08:33:58.720Z,1.73
2019-05-03T08:36:27.289Z,1.90
2019-05-03T08:38:56.575Z,1.90
2019-05-03T08:41:26.780Z,2.20
2019-05-03T08:43:56.177Z,2.77
2019-05-03T08:46:25.348Z,2.43
2019-05-03T08:48:54.787Z,1.83
2019-05-03T08:51:24.952Z,1.90
2019-05-03T08:53:55.751Z,1.83
2019-05-03T08:56:24.583Z,2.57
2019-05-03T08:58:55.319Z,1.70
2019-05-03T09:01:25.106Z,1.53
2019-05-03T09:03:55.748Z,1.63
2019-05-03T09:06:24.785Z,1.73
2019-05-03T09:08:56.871Z,2.00
2019-05-03T09:11:31.867Z,2.33
2019-05-03T09:14:01.487Z,1.53
2019-05-03T09:16:30.115Z,1.63
2019-05-03T09:18:58.856Z,1.80
2019-05-03T09:21:27.516Z,2.70
2019-05-03T09:23:56.079Z,1.90
2019-05-03T09:26:28.861Z,1.63
2019-05-03T09:28:55.638Z,1.87
2019-05-03T09:31:24.734Z,2.23
2019-05-03T09:33:54.787Z,1.70
2019-05-03T09:36:25.287Z,1.80
2019-05-03T09:38:54.931Z,2.30
2019-05-03T09:41:25.662Z,1.50
2019-05-03T09:43:55.419Z,1.80
2019-05-03T09:46:26.328Z,1.90
2019-05-03T09:49:09.424Z,1.97
2019-05-03T09:51:25.522Z,1.57
2019-05-03T09:54:05.309Z,2.00
2019-05-03T09:56:57.526Z,1.80
2019-05-03T09:59:25.513Z,2.17
2019-05-03T10:01:54.846Z,2.07
2019-05-03T10:04:25.428Z,2.50
2019-05-03T10:06:54.880Z,2.20
2019-05-03T10:09:25.818Z,2.83
2019-05-03T10:11:55.176Z,1.77
2019-05-03T10:14:24.277Z,2.07
2019-05-03T10:17:10.296Z,1.87
2019-05-03T10:19:40.517Z,1.93
2019-05-03T10:22:09.208Z,2.00
2019-05-03T10:24:37.798Z,2.00
2019-05-03T10:27:06.426Z,2.10
2019-05-03T10:29:35.069Z,2.30
2019-05-03T10:32:17.467Z,2.03
2019-05-03T10:34:57.100Z,2.43
2019-05-03T10:37:35.860Z,2.47
2019-05-03T10:40:08.155Z,2.67
2019-05-03T10:42:37.047Z,2.37
2019-05-03T10:45:06.693Z,1.83
2019-05-03T10:47:35.343Z,2.37
2019-05-03T10:50:06.520Z,2.83
2019-05-03T10:52:39.284Z,2.10
2019-05-03T10:55:08.277Z,2.60
2019-05-03T10:57:38.496Z,2.30
2019-05-03T11:00:38.546Z,2.53
2019-05-03T11:02:57.381Z,2.03
2019-05-03T11:05:25.942Z,2.43
2019-05-03T11:07:55.607Z,2.53
2019-05-03T11:10:25.300Z,2.40
2019-05-03T11:12:54.781Z,2.60
2019-05-03T11:15:25.687Z,2.33
2019-05-03T11:17:54.916Z,2.47
2019-05-03T11:20:36.546Z,2.37
2019-05-03T11:23:07.173Z,2.47
2019-05-03T11:25:36.584Z,2.67
2019-05-03T11:28:13.600Z,2.40
2019-05-03T11:30:52.239Z,2.23
2019-05-03T11:33:20.182Z,2.33
2019-05-03T11:36:06.106Z,2.83
2019-05-03T11:38:36.331Z,2.50
2019-05-03T11:41:05.031Z,2.30
2019-05-03T11:43:35.014Z,2.97
2019-05-03T11:46:03.869Z,2.50
2019-05-03T11:48:34.751Z,2.77
2019-05-03T11:51:02.992Z,2.20
2019-05-03T11:53:31.552Z,2.10
2019-05-03T11:56:00.136Z,2.10
2019-05-03T11:58:28.725Z,2.30
2019-05-03T12:01:11.637Z,1.70
2019-05-03T12:03:31.042Z,1.87
2019-05-03T12:06:00.554Z,1.70
2019-05-03T12:08:29.187Z,1.87
2019-05-03T12:11:01.271Z,2.00
2019-05-03T12:13:29.628Z,2.47
2019-05-03T12:15:59.473Z,1.90
2019-05-03T12:18:28.564Z,1.80
2019-05-03T12:20:59.045Z,2.30
2019-05-03T12:23:30.956Z,2.27
2019-05-03T12:25:58.848Z,2.20
2019-05-03T12:28:28.095Z,1.87
2019-05-03T12:30:56.698Z,2.00
2019-05-03T12:33:25.984Z,1.73
2019-05-03T12:35:55.314Z,2.40
2019-05-03T12:38:25.540Z,2.20
2019-05-03T12:40:54.577Z,2.00
2019-05-03T12:43:25.488Z,1.80
2019-05-03T12:45:53.622Z,1.80
2019-05-03T12:48:22.208Z,1.90
2019-05-03T12:50:51.625Z,2.13
2019-05-03T12:53:22.026Z,1.80
2019-05-03T12:55:50.659Z,2.37
2019-05-03T12:58:19.318Z,2.50
2019-05-03T13:00:52.087Z,2.30
2019-05-03T13:03:31.141Z,2.27
2019-05-03T13:05:59.722Z,2.03
2019-05-03T13:08:37.202Z,2.20
2019-05-03T13:11:06.240Z,2.17
2019-05-03T13:13:35.911Z,2.53
2019-05-03T13:16:05.618Z,2.20
2019-05-03T13:18:35.202Z,2.17
2019-05-03T13:21:05.887Z,2.00
2019-05-03T13:23:35.439Z,2.10
2019-05-03T13:26:05.614Z,2.70
2019-05-03T13:28:34.547Z,2.87
2019-05-03T13:31:05.448Z,2.23
2019-05-03T13:33:34.808Z,2.60
2019-05-03T13:36:04.512Z,2.67
2019-05-03T13:38:35.081Z,2.40
2019-05-03T13:41:06.221Z,2.80
2019-05-03T13:43:34.832Z,2.23
2019-05-03T13:46:05.097Z,2.70
2019-05-03T13:48:44.595Z,2.90
2019-05-03T13:51:05.298Z,2.63
2019-05-03T13:53:34.857Z,2.87
2019-05-03T13:56:04.796Z,3.20
2019-05-03T13:58:35.586Z,2.50
2019-05-03T14:01:05.468Z,3.03
2019-05-03T14:03:35.262Z,3.20
2019-05-03T14:06:08.380Z,3.13
2019-05-03T14:08:34.985Z,3.50
2019-05-03T14:11:05.017Z,3.07
2019-05-03T14:13:35.363Z,2.30
2019-05-03T14:16:05.482Z,2.53
2019-05-03T14:18:35.346Z,2.73
2019-05-03T14:21:05.861Z,1.97
2019-05-03T14:23:36.097Z,2.30
2019-05-03T14:26:04.701Z,3.20
2019-05-03T14:28:34.619Z,2.80
2019-05-03T14:31:05.135Z,3.20
2019-05-03T14:33:35.316Z,3.43
2019-05-03T14:36:05.315Z,3.30
2019-05-03T14:38:33.926Z,3.50
2019-05-03T14:41:02.596Z,2.60
2019-05-03T14:43:31.144Z,3.67
2019-05-03T14:45:59.714Z,3.40
2019-05-03T14:48:28.311Z,3.17
2019-05-03T14:50:57.421Z,3.53
2019-05-03T14:53:26.228Z,3.40
2019-05-03T14:56:14.531Z,3.80
2019-05-03T14:58:59.711Z,3.50
2019-05-03T15:01:48.087Z,3.70
2019-05-03T15:04:16.668Z,3.70
2019-05-03T15:06:45.993Z,4.00
2019-05-03T15:09:18.890Z,3.60
2019-05-03T15:11:45.407Z,3.47
2019-05-03T15:14:14.552Z,2.90
2019-05-03T15:16:44.899Z,3.03
2019-05-03T15:19:14.812Z,3.00
2019-05-03T15:21:45.251Z,3.47
2019-05-03T15:24:14.577Z,3.00
2019-05-03T15:26:44.781Z,3.77
2019-05-03T15:29:15.428Z,3.37
2019-05-03T15:31:44.755Z,3.23
2019-05-03T15:34:15.106Z,3.70
2019-05-03T15:36:45.090Z,3.70
2019-05-03T15:39:15.390Z,3.70
2019-05-03T15:41:44.933Z,3.87
2019-05-03T15:44:18.023Z,3.60
2019-05-03T15:46:54.540Z,3.97
2019-05-03T15:49:26.996Z,3.57
2019-05-03T15:51:54.031Z,3.40
2019-05-03T15:54:24.661Z,3.77
2019-05-03T15:56:54.382Z,3.73
2019-05-03T15:59:24.387Z,3.70
2019-05-03T16:01:55.187Z,3.83
2019-05-03T16:04:25.050Z,3.50
2019-05-03T16:06:55.342Z,3.67
2019-05-03T16:09:24.611Z,3.90
2019-05-03T16:11:53.203Z,4.13
2019-05-03T16:14:21.870Z,4.37
2019-05-03T16:16:50.510Z,5.20
2019-05-03T16:19:19.411Z,7.97
2019-05-03T16:21:47.984Z,4.80
2019-05-03T16:24:16.626Z,3.80
2019-05-03T16:27:02.156Z,4.10
2019-05-03T16:29:30.764Z,4.23
2019-05-03T16:31:59.351Z,4.40
2019-05-03T16:34:27.932Z,4.27
2019-05-03T16:36:56.813Z,3.83
2019-05-03T16:39:26.892Z,4.57
2019-05-03T16:41:55.859Z,4.50
2019-05-03T16:44:24.454Z,4.00
2019-05-03T16:46:53.131Z,4.83
2019-05-03T16:49:21.699Z,4.77
2019-05-03T16:51:50.277Z,5.03
2019-05-03T16:54:18.860Z,4.43
2019-05-03T16:56:47.414Z,5.10
2019-05-03T16:59:17.373Z,6.37
2019-05-03T17:01:46.297Z,6.50
2019-05-03T17:04:28.655Z,5.57
2019-05-03T17:07:10.897Z,6.17
2019-05-03T17:09:41.176Z,5.50
2019-05-03T17:12:15.112Z,5.90
2019-05-03T17:14:44.057Z,5.03
2019-05-03T17:17:14.792Z,6.27
2019-05-03T17:19:44.687Z,5.17
2019-05-03T17:22:14.873Z,5.23
2019-05-03T17:24:44.440Z,5.07
2019-05-03T17:27:13.134Z,5.03
2019-05-03T17:29:41.741Z,5.13
2019-05-03T17:32:11.154Z,5.60
2019-05-03T17:34:39.837Z,4.77
2019-05-03T17:37:08.595Z,5.10
2019-05-03T17:39:41.333Z,4.63
2019-05-03T17:42:20.477Z,4.73
2019-05-03T17:44:50.578Z,4.83
2019-05-03T17:47:19.235Z,4.87
2019-05-03T17:49:47.833Z,5.20
2019-05-03T17:52:18.032Z,5.53
2019-05-03T17:54:48.231Z,4.90
2019-05-03T17:57:18.469Z,4.50
2019-05-03T17:59:48.686Z,4.43
2019-05-03T18:02:25.063Z,4.93
2019-05-03T18:05:11.529Z,5.20
2019-05-03T18:07:58.252Z,4.43
2019-05-03T18:10:28.375Z,4.87
2019-05-03T18:12:56.960Z,5.30
2019-05-03T18:15:25.540Z,4.93
2019-05-03T18:17:54.903Z,4.73
2019-05-03T18:20:25.467Z,4.73
2019-05-03T18:22:54.783Z,5.00
2019-05-03T18:25:24.821Z,5.37
2019-05-03T18:27:55.197Z,5.63
2019-05-03T18:30:23.997Z,5.47
2019-05-03T18:32:54.318Z,4.80
2019-05-03T18:35:23.091Z,5.17
2019-05-03T18:37:58.611Z,4.73
2019-05-03T18:40:27.818Z,4.43
2019-05-03T18:43:07.429Z,5.17
2019-05-03T18:45:54.531Z,5.40
2019-05-03T18:48:26.508Z,5.43
2019-05-03T18:50:55.320Z,5.47
2019-05-03T18:53:25.214Z,6.00
2019-05-03T18:55:55.203Z,5.57
2019-05-03T18:58:24.438Z,5.80
2019-05-03T19:00:54.765Z,5.70
2019-05-03T19:03:25.142Z,5.37
2019-05-03T19:05:55.621Z,5.70
2019-05-03T19:08:40.973Z,5.87
2019-05-03T19:11:15.093Z,6.33
2019-05-03T19:14:00.785Z,6.13
2019-05-03T19:16:30.987Z,6.23
2019-05-03T19:18:59.955Z,5.97
2019-05-03T19:21:28.603Z,6.70
2019-05-03T19:23:57.811Z,6.70
2019-05-03T19:26:26.391Z,6.57
2019-05-03T19:28:55.050Z,6.07
2019-05-03T19:31:25.132Z,6.03
2019-05-03T19:33:55.038Z,6.00
2019-05-03T19:36:23.778Z,7.13
2019-05-03T19:38:54.525Z,6.80
2019-05-03T19:41:23.261Z,7.40
2019-05-03T19:43:54.747Z,8.00
2019-05-03T19:46:24.813Z,7.93
2019-05-03T19:48:54.710Z,8.43
2019-05-03T19:51:23.733Z,9.00
2019-05-03T19:53:55.761Z,7.63
2019-05-03T19:56:25.629Z,8.37
2019-05-03T19:58:56.124Z,8.53
2019-05-03T20:01:26.441Z,7.97
2019-05-03T20:03:56.649Z,7.40
2019-05-03T20:06:29.390Z,6.97
2019-05-03T20:08:59.608Z,6.70
2019-05-03T20:11:28.188Z,6.97
2019-05-03T20:13:56.819Z,6.13
2019-05-03T20:16:25.494Z,6.77
2019-05-03T20:18:55.546Z,6.83
2019-05-03T20:21:25.268Z,5.73
2019-05-03T20:23:55.547Z,5.80
2019-05-03T20:26:25.287Z,5.93
2019-05-03T20:28:55.311Z,5.20
2019-05-03T20:31:25.300Z,5.80
2019-05-03T20:33:54.880Z,5.37
2019-05-03T20:36:23.540Z,6.00
2019-05-03T20:38:52.092Z,5.83
2019-05-03T20:41:20.680Z,6.20
2019-05-03T20:43:54.952Z,6.00
2019-05-03T20:46:26.214Z,6.03
2019-05-03T20:48:57.221Z,5.23
2019-05-03T20:51:25.807Z,6.03
2019-05-03T20:53:55.365Z,4.90
2019-05-03T20:56:24.626Z,3.57
2019-05-03T20:58:54.908Z,2.17
2019-05-03T21:01:25.670Z,1.80
2019-05-03T21:03:54.399Z,1.77
2019-05-03T21:06:34.872Z,2.00
2019-05-03T21:08:56.299Z,1.57
2019-05-03T21:11:25.156Z,1.53
2019-05-03T21:13:53.818Z,1.60
2019-05-03T21:16:26.203Z,1.40
2019-05-03T21:18:56.369Z,1.83
2019-05-03T21:21:29.267Z,1.40
2019-05-03T21:24:14.285Z,2.20
2019-05-03T21:26:45.045Z,1.50
2019-05-03T21:29:15.062Z,1.67
2019-05-03T21:31:44.512Z,1.93
2019-05-03T21:34:14.769Z,1.80
2019-05-03T21:36:45.209Z,1.73
2019-05-03T21:39:14.647Z,2.00
2019-05-03T21:41:45.082Z,1.80
2019-05-03T21:44:15.486Z,1.70
2019-05-03T21:46:45.726Z,2.30
2019-05-03T21:49:21.808Z,2.87
2019-05-03T21:51:50.413Z,1.80
2019-05-03T21:54:18.969Z,1.63
2019-05-03T21:56:47.567Z,1.70
2019-05-03T21:59:16.181Z,1.37
2019-05-03T22:01:46.496Z,1.83
2019-05-03T22:04:15.634Z,1.80
2019-05-03T22:06:44.524Z,1.70
2019-05-03T22:09:13.187Z,1.87
2019-05-03T22:11:41.830Z,1.40
2019-05-03T22:14:12.128Z,1.70
2019-05-03T22:16:45.033Z,1.70
2019-05-03T22:19:16.360Z,1.40
2019-05-03T22:21:45.746Z,1.60
2019-05-03T22:24:16.062Z,1.20
2019-05-03T22:27:04.865Z,1.47
2019-05-03T22:29:35.619Z,1.10
2019-05-03T22:32:05.328Z,1.07
2019-05-03T22:34:34.903Z,1.30
2019-05-03T22:37:04.097Z,1.07
2019-05-03T22:39:32.678Z,1.45
2019-05-03T22:42:01.319Z,1.50
2019-05-03T22:44:29.912Z,1.50
2019-05-03T22:46:58.633Z,1.60
2019-05-03T22:49:27.223Z,1.75
2019-05-03T22:51:55.789Z,2.00
2019-05-03T22:54:24.680Z,1.70
2019-05-03T22:56:55.237Z,1.43
2019-05-03T22:59:25.222Z,1.65
2019-05-03T23:01:54.637Z,2.20
2019-05-03T23:04:25.244Z,1.53
2019-05-03T23:06:55.548Z,1.50
2019-05-03T23:09:24.859Z,1.45
2019-05-03T23:11:55.301Z,1.92
2019-05-03T23:14:25.540Z,1.60
2019-05-03T23:16:54.276Z,1.85
2019-05-03T23:19:22.850Z,2.13
2019-05-03T23:21:59.149Z,2.05
2019-05-03T23:24:27.736Z,1.70
2019-05-03T23:26:56.316Z,1.90
2019-05-03T23:29:24.919Z,2.47
2019-05-03T23:31:53.494Z,2.17
2019-05-03T23:34:22.139Z,2.02
2019-05-03T23:36:50.687Z,2.10
2019-05-03T23:39:19.303Z,2.43
2019-05-03T23:41:47.861Z,2.67
2019-05-03T23:44:16.545Z,2.70
2019-05-03T23:46:49.283Z,2.65
2019-05-03T23:49:17.879Z,2.50
2019-05-03T23:51:51.531Z,2.60
2019-05-03T23:54:20.113Z,2.47
2019-05-03T23:56:49.188Z,2.37
2019-05-03T23:59:17.758Z,2.55
